sensor_id;sensor_type;location;lat;lon;timestamp;temperature;humidity
26909;DHT22;14477;51.038;4.588;2023-08-08T00:00:50;16.90;99.90
26909;DHT22;14477;51.038;4.588;2023-08-08T00:03:15;16.90;99.90
26909;DHT22;14477;51.038;4.588;2023-08-08T00:05:41;16.90;99.90
26909;DHT22;14477;51.038;4.588;2023-08-08T00:08:07;16.80;99.90
26909;DHT22;14477;51.038;4.588;2023-08-08T00:10:33;16.80;99.90
26909;DHT22;14477;51.038;4.588;2023-08-08T00:12:58;16.80;99.90
26909;DHT22;14477;51.038;4.588;2023-08-08T00:15:24;15.30;99.90
26909;DHT22;14477;51.038;4.588;2023-08-08T00:17:50;16.80;99.90
26909;DHT22;14477;51.038;4.588;2023-08-08T00:20:16;16.80;99.90
26909;DHT22;14477;51.038;4.588;2023-08-08T00:22:41;16.70;99.90
26909;DHT22;14477;51.038;4.588;2023-08-08T00:25:07;16.80;99.90
26909;DHT22;14477;51.038;4.588;2023-08-08T00:27:34;16.70;99.90
26909;DHT22;14477;51.038;4.588;2023-08-08T00:30:01;16.70;99.90
26909;DHT22;14477;51.038;4.588;2023-08-08T00:32:26;16.70;99.90
26909;DHT22;14477;51.038;4.588;2023-08-08T00:37:18;16.60;99.90
26909;DHT22;14477;51.038;4.588;2023-08-08T00:39:44;16.60;99.90
26909;DHT22;14477;51.038;4.588;2023-08-08T00:42:12;16.60;99.90
26909;DHT22;14477;51.038;4.588;2023-08-08T00:44:39;16.60;99.90
26909;DHT22;14477;51.038;4.588;2023-08-08T00:47:09;16.60;99.90
26909;DHT22;14477;51.038;4.588;2023-08-08T00:49:36;16.60;99.90
26909;DHT22;14477;51.038;4.588;2023-08-08T00:52:04;16.50;99.90
26909;DHT22;14477;51.038;4.588;2023-08-08T00:54:31;16.50;99.90
26909;DHT22;14477;51.038;4.588;2023-08-08T00:56:57;16.40;99.90
26909;DHT22;14477;51.038;4.588;2023-08-08T00:59:23;16.50;99.90
26909;DHT22;14477;51.038;4.588;2023-08-08T01:01:49;16.00;99.90
26909;DHT22;14477;51.038;4.588;2023-08-08T01:04:16;16.40;99.90
26909;DHT22;14477;51.038;4.588;2023-08-08T01:09:36;16.40;99.90
26909;DHT22;14477;51.038;4.588;2023-08-08T01:12:04;16.30;99.90
26909;DHT22;14477;51.038;4.588;2023-08-08T01:14:32;16.30;99.90
26909;DHT22;14477;51.038;4.588;2023-08-08T01:17:00;16.30;99.90
26909;DHT22;14477;51.038;4.588;2023-08-08T01:19:29;16.60;99.90
26909;DHT22;14477;51.038;4.588;2023-08-08T01:22:00;16.10;99.90
26909;DHT22;14477;51.038;4.588;2023-08-08T01:24:27;16.20;99.90
26909;DHT22;14477;51.038;4.588;2023-08-08T01:26:56;16.20;99.90
26909;DHT22;14477;51.038;4.588;2023-08-08T01:29:22;16.20;99.90
26909;DHT22;14477;51.038;4.588;2023-08-08T01:31:47;16.90;99.90
26909;DHT22;14477;51.038;4.588;2023-08-08T01:34:13;16.10;99.90
26909;DHT22;14477;51.038;4.588;2023-08-08T01:36:56;16.20;99.90
26909;DHT22;14477;51.038;4.588;2023-08-08T01:39:30;16.10;99.90
26909;DHT22;14477;51.038;4.588;2023-08-08T01:41:56;16.10;99.90
26909;DHT22;14477;51.038;4.588;2023-08-08T01:44:24;17.10;99.90
26909;DHT22;14477;51.038;4.588;2023-08-08T01:46:52;16.10;99.90
26909;DHT22;14477;51.038;4.588;2023-08-08T01:49:18;16.10;99.90
26909;DHT22;14477;51.038;4.588;2023-08-08T01:51:44;16.00;99.90
26909;DHT22;14477;51.038;4.588;2023-08-08T01:56:37;16.00;99.90
26909;DHT22;14477;51.038;4.588;2023-08-08T01:59:02;16.00;99.90
26909;DHT22;14477;51.038;4.588;2023-08-08T02:01:28;16.00;99.90
26909;DHT22;14477;51.038;4.588;2023-08-08T02:03:54;16.00;99.90
26909;DHT22;14477;51.038;4.588;2023-08-08T02:06:19;15.90;99.90
26909;DHT22;14477;51.038;4.588;2023-08-08T02:08:46;15.90;99.90
26909;DHT22;14477;51.038;4.588;2023-08-08T02:11:11;15.90;99.90
26909;DHT22;14477;51.038;4.588;2023-08-08T02:13:37;15.90;99.90
26909;DHT22;14477;51.038;4.588;2023-08-08T02:16:03;15.90;99.90
26909;DHT22;14477;51.038;4.588;2023-08-08T02:18:29;15.80;99.90
26909;DHT22;14477;51.038;4.588;2023-08-08T02:20:54;15.90;99.90
26909;DHT22;14477;51.038;4.588;2023-08-08T02:23:20;15.80;99.90
26909;DHT22;14477;51.038;4.588;2023-08-08T02:25:46;15.80;99.90
26909;DHT22;14477;51.038;4.588;2023-08-08T02:28:12;15.80;99.90
26909;DHT22;14477;51.038;4.588;2023-08-08T02:30:38;15.80;99.90
26909;DHT22;14477;51.038;4.588;2023-08-08T02:33:04;15.80;99.90
26909;DHT22;14477;51.038;4.588;2023-08-08T02:35:29;15.80;99.90
26909;DHT22;14477;51.038;4.588;2023-08-08T02:40:22;15.70;99.90
26909;DHT22;14477;51.038;4.588;2023-08-08T02:42:49;15.80;99.90
26909;DHT22;14477;51.038;4.588;2023-08-08T02:45:15;15.80;99.90
26909;DHT22;14477;51.038;4.588;2023-08-08T02:47:41;15.70;99.90
26909;DHT22;14477;51.038;4.588;2023-08-08T02:50:07;15.70;99.90
26909;DHT22;14477;51.038;4.588;2023-08-08T02:52:33;15.70;99.90
26909;DHT22;14477;51.038;4.588;2023-08-08T02:54:59;15.70;99.90
26909;DHT22;14477;51.038;4.588;2023-08-08T02:57:24;15.70;99.90
26909;DHT22;14477;51.038;4.588;2023-08-08T02:59:50;15.70;99.90
26909;DHT22;14477;51.038;4.588;2023-08-08T03:02:16;15.60;99.90
26909;DHT22;14477;51.038;4.588;2023-08-08T03:04:42;15.60;99.90
26909;DHT22;14477;51.038;4.588;2023-08-08T03:07:07;15.60;99.90
26909;DHT22;14477;51.038;4.588;2023-08-08T03:09:33;15.60;99.90
26909;DHT22;14477;51.038;4.588;2023-08-08T03:11:59;15.70;99.90
26909;DHT22;14477;51.038;4.588;2023-08-08T03:14:24;15.60;99.90
26909;DHT22;14477;51.038;4.588;2023-08-08T03:16:50;15.50;99.90
26909;DHT22;14477;51.038;4.588;2023-08-08T03:19:16;14.80;99.90
26909;DHT22;14477;51.038;4.588;2023-08-08T03:24:08;15.00;99.90
26909;DHT22;14477;51.038;4.588;2023-08-08T03:26:34;15.50;99.90
26909;DHT22;14477;51.038;4.588;2023-08-08T03:29:00;15.50;99.90
26909;DHT22;14477;51.038;4.588;2023-08-08T03:31:25;15.50;99.90
26909;DHT22;14477;51.038;4.588;2023-08-08T03:33:52;15.50;99.90
26909;DHT22;14477;51.038;4.588;2023-08-08T03:36:18;15.50;99.90
26909;DHT22;14477;51.038;4.588;2023-08-08T03:38:44;15.50;99.90
26909;DHT22;14477;51.038;4.588;2023-08-08T03:41:12;15.40;99.90
26909;DHT22;14477;51.038;4.588;2023-08-08T03:43:38;15.40;99.90
26909;DHT22;14477;51.038;4.588;2023-08-08T03:46:04;15.40;99.90
26909;DHT22;14477;51.038;4.588;2023-08-08T03:48:30;15.40;99.90
26909;DHT22;14477;51.038;4.588;2023-08-08T03:50:55;15.40;99.90
26909;DHT22;14477;51.038;4.588;2023-08-08T03:53:21;15.40;99.90
26909;DHT22;14477;51.038;4.588;2023-08-08T03:55:47;15.40;99.90
26909;DHT22;14477;51.038;4.588;2023-08-08T03:58:13;15.40;99.90
26909;DHT22;14477;51.038;4.588;2023-08-08T04:00:38;15.40;99.90
26909;DHT22;14477;51.038;4.588;2023-08-08T04:03:12;15.40;99.90
26909;DHT22;14477;51.038;4.588;2023-08-08T04:08:05;15.30;99.90
26909;DHT22;14477;51.038;4.588;2023-08-08T04:10:31;15.10;99.90
26909;DHT22;14477;51.038;4.588;2023-08-08T04:12:56;15.30;99.90
26909;DHT22;14477;51.038;4.588;2023-08-08T04:15:22;15.30;99.90
26909;DHT22;14477;51.038;4.588;2023-08-08T04:17:48;15.30;99.90
26909;DHT22;14477;51.038;4.588;2023-08-08T04:20:14;18.40;99.90
26909;DHT22;14477;51.038;4.588;2023-08-08T04:22:39;15.30;99.90
26909;DHT22;14477;51.038;4.588;2023-08-08T04:25:06;15.30;99.90
26909;DHT22;14477;51.038;4.588;2023-08-08T04:29:58;15.20;99.90
26909;DHT22;14477;51.038;4.588;2023-08-08T04:32:24;15.20;99.90
26909;DHT22;14477;51.038;4.588;2023-08-08T04:34:49;15.20;99.90
26909;DHT22;14477;51.038;4.588;2023-08-08T04:37:15;15.20;99.90
26909;DHT22;14477;51.038;4.588;2023-08-08T04:39:41;15.20;99.90
26909;DHT22;14477;51.038;4.588;2023-08-08T04:42:06;15.30;99.90
26909;DHT22;14477;51.038;4.588;2023-08-08T04:44:32;15.20;99.90
26909;DHT22;14477;51.038;4.588;2023-08-08T04:46:58;14.60;99.90
26909;DHT22;14477;51.038;4.588;2023-08-08T04:49:24;15.20;99.90
26909;DHT22;14477;51.038;4.588;2023-08-08T04:51:49;15.20;99.90
26909;DHT22;14477;51.038;4.588;2023-08-08T04:54:15;15.30;99.90
26909;DHT22;14477;51.038;4.588;2023-08-08T04:56:41;15.30;99.90
26909;DHT22;14477;51.038;4.588;2023-08-08T04:59:06;15.30;99.90
26909;DHT22;14477;51.038;4.588;2023-08-08T05:01:32;15.30;99.90
26909;DHT22;14477;51.038;4.588;2023-08-08T05:03:58;15.30;99.90
26909;DHT22;14477;51.038;4.588;2023-08-08T05:06:24;15.30;99.90
26909;DHT22;14477;51.038;4.588;2023-08-08T05:08:52;15.30;99.90
26909;DHT22;14477;51.038;4.588;2023-08-08T05:11:18;15.30;99.90
26909;DHT22;14477;51.038;4.588;2023-08-08T05:13:44;15.30;99.90
26909;DHT22;14477;51.038;4.588;2023-08-08T05:16:10;15.50;99.90
26909;DHT22;14477;51.038;4.588;2023-08-08T05:18:36;15.40;99.90
26909;DHT22;14477;51.038;4.588;2023-08-08T05:21:02;15.40;99.90
26909;DHT22;14477;51.038;4.588;2023-08-08T05:23:27;15.40;99.90
26909;DHT22;14477;51.038;4.588;2023-08-08T05:25:53;15.50;99.90
26909;DHT22;14477;51.038;4.588;2023-08-08T05:28:19;14.30;99.90
26909;DHT22;14477;51.038;4.588;2023-08-08T05:30:46;15.50;99.90
26909;DHT22;14477;51.038;4.588;2023-08-08T05:33:11;15.50;99.90
26909;DHT22;14477;51.038;4.588;2023-08-08T05:35:37;15.50;99.90
26909;DHT22;14477;51.038;4.588;2023-08-08T05:38:03;15.50;99.90
26909;DHT22;14477;51.038;4.588;2023-08-08T05:40:29;15.60;99.90
26909;DHT22;14477;51.038;4.588;2023-08-08T05:42:54;15.60;99.90
26909;DHT22;14477;51.038;4.588;2023-08-08T05:45:20;15.60;99.90
26909;DHT22;14477;51.038;4.588;2023-08-08T05:47:46;15.70;99.90
26909;DHT22;14477;51.038;4.588;2023-08-08T05:50:11;18.20;99.90
26909;DHT22;14477;51.038;4.588;2023-08-08T05:52:37;15.80;99.90
26909;DHT22;14477;51.038;4.588;2023-08-08T05:55:03;15.80;99.90
26909;DHT22;14477;51.038;4.588;2023-08-08T05:57:29;15.80;99.90
26909;DHT22;14477;51.038;4.588;2023-08-08T05:59:55;15.90;99.90
26909;DHT22;14477;51.038;4.588;2023-08-08T06:02:20;16.00;99.90
26909;DHT22;14477;51.038;4.588;2023-08-08T06:04:46;16.00;99.90
26909;DHT22;14477;51.038;4.588;2023-08-08T06:07:12;16.10;99.90
26909;DHT22;14477;51.038;4.588;2023-08-08T06:09:37;16.20;99.90
26909;DHT22;14477;51.038;4.588;2023-08-08T06:12:03;16.30;99.90
26909;DHT22;14477;51.038;4.588;2023-08-08T06:14:30;16.40;99.90
26909;DHT22;14477;51.038;4.588;2023-08-08T06:16:56;16.50;99.90
26909;DHT22;14477;51.038;4.588;2023-08-08T06:19:22;16.60;99.90
26909;DHT22;14477;51.038;4.588;2023-08-08T06:21:47;16.70;99.90
26909;DHT22;14477;51.038;4.588;2023-08-08T06:24:14;16.70;99.90
26909;DHT22;14477;51.038;4.588;2023-08-08T06:26:40;16.80;99.90
26909;DHT22;14477;51.038;4.588;2023-08-08T06:29:05;16.90;99.90
26909;DHT22;14477;51.038;4.588;2023-08-08T06:31:31;17.00;99.90
26909;DHT22;14477;51.038;4.588;2023-08-08T06:33:57;17.10;99.90
26909;DHT22;14477;51.038;4.588;2023-08-08T06:36:22;17.10;99.90
26909;DHT22;14477;51.038;4.588;2023-08-08T06:38:48;17.20;99.90
26909;DHT22;14477;51.038;4.588;2023-08-08T06:41:14;17.20;99.90
26909;DHT22;14477;51.038;4.588;2023-08-08T06:43:40;17.20;99.90
26909;DHT22;14477;51.038;4.588;2023-08-08T06:46:05;17.20;99.90
26909;DHT22;14477;51.038;4.588;2023-08-08T06:48:31;17.20;99.90
26909;DHT22;14477;51.038;4.588;2023-08-08T06:50:57;17.30;99.90
26909;DHT22;14477;51.038;4.588;2023-08-08T06:53:23;17.30;99.90
26909;DHT22;14477;51.038;4.588;2023-08-08T06:55:49;17.50;99.90
26909;DHT22;14477;51.038;4.588;2023-08-08T06:58:14;17.50;99.90
26909;DHT22;14477;51.038;4.588;2023-08-08T07:00:40;17.60;99.90
26909;DHT22;14477;51.038;4.588;2023-08-08T07:03:06;17.70;99.90
26909;DHT22;14477;51.038;4.588;2023-08-08T07:05:32;17.80;99.90
26909;DHT22;14477;51.038;4.588;2023-08-08T07:07:57;17.90;99.90
26909;DHT22;14477;51.038;4.588;2023-08-08T07:10:23;18.00;99.90
26909;DHT22;14477;51.038;4.588;2023-08-08T07:12:49;18.10;99.90
26909;DHT22;14477;51.038;4.588;2023-08-08T07:15:15;18.20;99.90
26909;DHT22;14477;51.038;4.588;2023-08-08T07:20:07;18.40;99.90
26909;DHT22;14477;51.038;4.588;2023-08-08T07:22:33;18.50;99.90
26909;DHT22;14477;51.038;4.588;2023-08-08T07:24:59;18.60;99.90
26909;DHT22;14477;51.038;4.588;2023-08-08T07:27:26;18.70;99.90
26909;DHT22;14477;51.038;4.588;2023-08-08T07:29:52;18.80;99.90
26909;DHT22;14477;51.038;4.588;2023-08-08T07:32:18;18.90;99.90
26909;DHT22;14477;51.038;4.588;2023-08-08T07:34:43;19.00;99.90
26909;DHT22;14477;51.038;4.588;2023-08-08T07:37:09;19.10;99.90
26909;DHT22;14477;51.038;4.588;2023-08-08T07:39:35;19.10;99.90
26909;DHT22;14477;51.038;4.588;2023-08-08T07:42:01;19.20;99.90
26909;DHT22;14477;51.038;4.588;2023-08-08T07:44:27;19.30;99.90
26909;DHT22;14477;51.038;4.588;2023-08-08T07:46:52;19.40;99.90
26909;DHT22;14477;51.038;4.588;2023-08-08T07:49:18;19.40;99.90
26909;DHT22;14477;51.038;4.588;2023-08-08T07:51:44;19.50;99.90
26909;DHT22;14477;51.038;4.588;2023-08-08T07:54:10;19.50;99.90
26909;DHT22;14477;51.038;4.588;2023-08-08T07:56:36;19.50;99.90
26909;DHT22;14477;51.038;4.588;2023-08-08T07:59:02;19.60;99.90
26909;DHT22;14477;51.038;4.588;2023-08-08T08:01:29;19.60;99.90
26909;DHT22;14477;51.038;4.588;2023-08-08T08:03:55;19.60;99.90
26909;DHT22;14477;51.038;4.588;2023-08-08T08:06:21;19.70;99.90
26909;DHT22;14477;51.038;4.588;2023-08-08T08:08:47;19.70;99.90
26909;DHT22;14477;51.038;4.588;2023-08-08T08:11:12;19.80;99.90
26909;DHT22;14477;51.038;4.588;2023-08-08T08:13:39;19.80;99.90
26909;DHT22;14477;51.038;4.588;2023-08-08T08:16:05;19.80;99.90
26909;DHT22;14477;51.038;4.588;2023-08-08T08:18:31;19.80;99.90
26909;DHT22;14477;51.038;4.588;2023-08-08T08:20:57;19.90;99.90
26909;DHT22;14477;51.038;4.588;2023-08-08T08:23:23;19.90;99.90
26909;DHT22;14477;51.038;4.588;2023-08-08T08:25:49;19.90;99.90
26909;DHT22;14477;51.038;4.588;2023-08-08T08:28:16;19.90;99.90
26909;DHT22;14477;51.038;4.588;2023-08-08T08:30:41;19.90;99.90
26909;DHT22;14477;51.038;4.588;2023-08-08T08:33:07;20.00;99.90
26909;DHT22;14477;51.038;4.588;2023-08-08T08:35:36;20.00;99.90
26909;DHT22;14477;51.038;4.588;2023-08-08T08:38:03;20.00;99.90
26909;DHT22;14477;51.038;4.588;2023-08-08T08:40:32;20.00;99.90
26909;DHT22;14477;51.038;4.588;2023-08-08T08:43:00;20.00;99.90
26909;DHT22;14477;51.038;4.588;2023-08-08T08:45:26;20.00;99.90
26909;DHT22;14477;51.038;4.588;2023-08-08T08:47:55;20.10;99.90
26909;DHT22;14477;51.038;4.588;2023-08-08T08:50:22;21.20;99.90
26909;DHT22;14477;51.038;4.588;2023-08-08T08:52:52;20.20;99.90
26909;DHT22;14477;51.038;4.588;2023-08-08T08:55:18;20.20;99.90
26909;DHT22;14477;51.038;4.588;2023-08-08T08:57:44;20.20;99.90
26909;DHT22;14477;51.038;4.588;2023-08-08T09:00:10;20.30;99.90
26909;DHT22;14477;51.038;4.588;2023-08-08T09:02:37;20.30;99.90
26909;DHT22;14477;51.038;4.588;2023-08-08T09:05:03;20.50;99.90
26909;DHT22;14477;51.038;4.588;2023-08-08T09:07:31;20.40;99.90
26909;DHT22;14477;51.038;4.588;2023-08-08T09:09:57;20.50;99.90
26909;DHT22;14477;51.038;4.588;2023-08-08T09:12:24;20.50;99.90
26909;DHT22;14477;51.038;4.588;2023-08-08T09:14:55;20.60;99.90
26909;DHT22;14477;51.038;4.588;2023-08-08T09:17:22;20.60;99.90
26909;DHT22;14477;51.038;4.588;2023-08-08T09:19:50;20.70;99.90
26909;DHT22;14477;51.038;4.588;2023-08-08T09:22:15;20.80;99.90
26909;DHT22;14477;51.038;4.588;2023-08-08T09:24:42;20.90;99.90
26909;DHT22;14477;51.038;4.588;2023-08-08T09:27:08;21.10;99.90
26909;DHT22;14477;51.038;4.588;2023-08-08T09:29:36;21.20;99.90
26909;DHT22;14477;51.038;4.588;2023-08-08T09:32:06;21.30;99.90
26909;DHT22;14477;51.038;4.588;2023-08-08T09:34:32;21.50;99.90
26909;DHT22;14477;51.038;4.588;2023-08-08T09:36:58;21.50;99.90
26909;DHT22;14477;51.038;4.588;2023-08-08T09:39:26;21.60;99.90
26909;DHT22;14477;51.038;4.588;2023-08-08T09:41:51;21.70;99.90
26909;DHT22;14477;51.038;4.588;2023-08-08T09:44:17;21.80;99.90
26909;DHT22;14477;51.038;4.588;2023-08-08T09:46:43;22.00;99.90
26909;DHT22;14477;51.038;4.588;2023-08-08T09:49:10;21.90;99.90
26909;DHT22;14477;51.038;4.588;2023-08-08T09:51:37;21.90;99.90
26909;DHT22;14477;51.038;4.588;2023-08-08T09:54:04;21.80;99.90
26909;DHT22;14477;51.038;4.588;2023-08-08T09:56:33;21.70;99.90
26909;DHT22;14477;51.038;4.588;2023-08-08T09:59:00;21.60;99.90
26909;DHT22;14477;51.038;4.588;2023-08-08T10:01:27;21.50;99.90
26909;DHT22;14477;51.038;4.588;2023-08-08T10:03:55;21.40;99.90
26909;DHT22;14477;51.038;4.588;2023-08-08T10:06:21;21.30;99.90
26909;DHT22;14477;51.038;4.588;2023-08-08T10:08:47;21.30;99.90
26909;DHT22;14477;51.038;4.588;2023-08-08T10:11:14;21.30;99.90
26909;DHT22;14477;51.038;4.588;2023-08-08T10:13:47;21.30;99.90
26909;DHT22;14477;51.038;4.588;2023-08-08T10:16:16;21.30;99.90
26909;DHT22;14477;51.038;4.588;2023-08-08T10:18:43;21.40;99.90
26909;DHT22;14477;51.038;4.588;2023-08-08T10:21:08;21.50;99.90
26909;DHT22;14477;51.038;4.588;2023-08-08T10:23:37;21.60;99.90
26909;DHT22;14477;51.038;4.588;2023-08-08T10:26:03;21.70;99.90
26909;DHT22;14477;51.038;4.588;2023-08-08T10:28:32;21.70;99.90
26909;DHT22;14477;51.038;4.588;2023-08-08T10:31:00;21.80;99.90
26909;DHT22;14477;51.038;4.588;2023-08-08T10:33:38;21.70;99.90
26909;DHT22;14477;51.038;4.588;2023-08-08T10:36:06;21.70;99.90
26909;DHT22;14477;51.038;4.588;2023-08-08T10:38:53;21.60;99.90
26909;DHT22;14477;51.038;4.588;2023-08-08T10:41:26;21.70;99.90
26909;DHT22;14477;51.038;4.588;2023-08-08T10:43:57;21.80;99.90
26909;DHT22;14477;51.038;4.588;2023-08-08T10:46:30;21.90;99.90
26909;DHT22;14477;51.038;4.588;2023-08-08T10:48:59;22.10;99.90
26909;DHT22;14477;51.038;4.588;2023-08-08T10:51:39;22.30;99.90
26909;DHT22;14477;51.038;4.588;2023-08-08T10:54:25;22.40;99.90
26909;DHT22;14477;51.038;4.588;2023-08-08T10:56:59;22.50;99.90
26909;DHT22;14477;51.038;4.588;2023-08-08T10:59:28;22.60;99.90
26909;DHT22;14477;51.038;4.588;2023-08-08T11:02:01;22.60;99.90
26909;DHT22;14477;51.038;4.588;2023-08-08T11:04:28;22.90;99.90
26909;DHT22;14477;51.038;4.588;2023-08-08T11:06:56;22.70;99.90
26909;DHT22;14477;51.038;4.588;2023-08-08T11:09:22;22.80;99.90
26909;DHT22;14477;51.038;4.588;2023-08-08T11:11:48;22.90;99.90
26909;DHT22;14477;51.038;4.588;2023-08-08T11:14:19;23.00;99.90
26909;DHT22;14477;51.038;4.588;2023-08-08T11:16:46;23.10;99.90
26909;DHT22;14477;51.038;4.588;2023-08-08T11:19:12;23.20;99.90
26909;DHT22;14477;51.038;4.588;2023-08-08T11:21:41;23.20;99.90
26909;DHT22;14477;51.038;4.588;2023-08-08T11:24:07;23.20;99.90
26909;DHT22;14477;51.038;4.588;2023-08-08T11:26:38;23.20;99.90
26909;DHT22;14477;51.038;4.588;2023-08-08T11:29:05;23.10;99.90
26909;DHT22;14477;51.038;4.588;2023-08-08T11:31:32;23.00;99.90
26909;DHT22;14477;51.038;4.588;2023-08-08T11:33:59;23.00;99.90
26909;DHT22;14477;51.038;4.588;2023-08-08T11:36:28;23.00;99.90
26909;DHT22;14477;51.038;4.588;2023-08-08T11:38:55;23.10;99.90
26909;DHT22;14477;51.038;4.588;2023-08-08T11:41:23;23.20;99.90
26909;DHT22;14477;51.038;4.588;2023-08-08T11:43:50;23.20;99.90
26909;DHT22;14477;51.038;4.588;2023-08-08T11:46:17;23.00;99.90
26909;DHT22;14477;51.038;4.588;2023-08-08T11:48:46;23.20;99.90
26909;DHT22;14477;51.038;4.588;2023-08-08T11:51:14;23.20;99.90
26909;DHT22;14477;51.038;4.588;2023-08-08T11:53:49;23.20;99.90
26909;DHT22;14477;51.038;4.588;2023-08-08T11:56:15;23.20;99.90
26909;DHT22;14477;51.038;4.588;2023-08-08T11:58:41;23.00;99.90
26909;DHT22;14477;51.038;4.588;2023-08-08T12:01:07;23.00;99.90
26909;DHT22;14477;51.038;4.588;2023-08-08T12:03:35;23.00;99.90
26909;DHT22;14477;51.038;4.588;2023-08-08T12:06:12;22.90;99.90
26909;DHT22;14477;51.038;4.588;2023-08-08T12:08:39;23.00;99.90
26909;DHT22;14477;51.038;4.588;2023-08-08T12:11:05;23.10;99.90
26909;DHT22;14477;51.038;4.588;2023-08-08T12:13:31;23.10;99.90
26909;DHT22;14477;51.038;4.588;2023-08-08T12:15:58;23.20;99.90
26909;DHT22;14477;51.038;4.588;2023-08-08T12:18:24;23.40;99.90
26909;DHT22;14477;51.038;4.588;2023-08-08T12:20:50;23.50;99.90
26909;DHT22;14477;51.038;4.588;2023-08-08T12:23:16;21.70;99.90
26909;DHT22;14477;51.038;4.588;2023-08-08T12:25:42;23.70;99.90
26909;DHT22;14477;51.038;4.588;2023-08-08T12:28:08;23.80;99.90
26909;DHT22;14477;51.038;4.588;2023-08-08T12:30:34;23.90;99.90
26909;DHT22;14477;51.038;4.588;2023-08-08T12:33:00;24.00;99.90
26909;DHT22;14477;51.038;4.588;2023-08-08T12:35:26;24.30;99.90
26909;DHT22;14477;51.038;4.588;2023-08-08T12:37:53;24.50;99.90
26909;DHT22;14477;51.038;4.588;2023-08-08T12:40:19;24.80;99.90
26909;DHT22;14477;51.038;4.588;2023-08-08T12:42:45;25.10;99.90
26909;DHT22;14477;51.038;4.588;2023-08-08T12:45:11;25.30;99.90
26909;DHT22;14477;51.038;4.588;2023-08-08T12:47:37;25.40;99.90
26909;DHT22;14477;51.038;4.588;2023-08-08T12:50:06;25.40;99.90
26909;DHT22;14477;51.038;4.588;2023-08-08T12:52:33;25.40;99.90
26909;DHT22;14477;51.038;4.588;2023-08-08T12:54:59;25.40;99.90
26909;DHT22;14477;51.038;4.588;2023-08-08T12:57:25;25.40;99.90
26909;DHT22;14477;51.038;4.588;2023-08-08T12:59:51;25.40;99.90
26909;DHT22;14477;51.038;4.588;2023-08-08T13:02:16;25.40;99.90
26909;DHT22;14477;51.038;4.588;2023-08-08T13:04:42;25.40;99.90
26909;DHT22;14477;51.038;4.588;2023-08-08T13:07:08;25.30;99.90
26909;DHT22;14477;51.038;4.588;2023-08-08T13:09:34;25.40;99.90
26909;DHT22;14477;51.038;4.588;2023-08-08T13:12:00;25.50;99.90
26909;DHT22;14477;51.038;4.588;2023-08-08T13:14:26;25.60;99.90
26909;DHT22;14477;51.038;4.588;2023-08-08T13:16:51;25.80;99.90
26909;DHT22;14477;51.038;4.588;2023-08-08T13:19:20;25.90;99.90
26909;DHT22;14477;51.038;4.588;2023-08-08T13:21:47;26.00;99.90
26909;DHT22;14477;51.038;4.588;2023-08-08T13:24:13;26.10;99.90
26909;DHT22;14477;51.038;4.588;2023-08-08T13:26:41;26.10;99.90
26909;DHT22;14477;51.038;4.588;2023-08-08T13:29:07;26.20;98.90
26909;DHT22;14477;51.038;4.588;2023-08-08T13:31:34;25.90;99.90
26909;DHT22;14477;51.038;4.588;2023-08-08T13:34:00;25.80;99.90
26909;DHT22;14477;51.038;4.588;2023-08-08T13:36:25;25.70;99.90
26909;DHT22;14477;51.038;4.588;2023-08-08T13:38:51;25.60;99.90
26909;DHT22;14477;51.038;4.588;2023-08-08T13:41:17;25.40;99.90
26909;DHT22;14477;51.038;4.588;2023-08-08T13:43:43;25.30;99.90
26909;DHT22;14477;51.038;4.588;2023-08-08T13:46:09;25.20;99.90
26909;DHT22;14477;51.038;4.588;2023-08-08T13:48:38;25.10;99.90
26909;DHT22;14477;51.038;4.588;2023-08-08T13:51:03;25.00;99.90
26909;DHT22;14477;51.038;4.588;2023-08-08T13:53:29;25.00;99.90
26909;DHT22;14477;51.038;4.588;2023-08-08T13:55:55;25.00;99.90
26909;DHT22;14477;51.038;4.588;2023-08-08T13:58:21;25.00;99.90
26909;DHT22;14477;51.038;4.588;2023-08-08T14:00:51;25.00;99.90
26909;DHT22;14477;51.038;4.588;2023-08-08T14:03:17;25.10;99.90
26909;DHT22;14477;51.038;4.588;2023-08-08T14:05:44;25.10;99.90
26909;DHT22;14477;51.038;4.588;2023-08-08T14:08:10;25.10;99.90
26909;DHT22;14477;51.038;4.588;2023-08-08T14:10:36;25.20;99.90
26909;DHT22;14477;51.038;4.588;2023-08-08T14:13:02;25.20;99.90
26909;DHT22;14477;51.038;4.588;2023-08-08T14:15:28;25.10;99.90
26909;DHT22;14477;51.038;4.588;2023-08-08T14:17:54;25.10;99.90
26909;DHT22;14477;51.038;4.588;2023-08-08T14:20:20;25.00;99.90
26909;DHT22;14477;51.038;4.588;2023-08-08T14:22:46;25.00;99.90
26909;DHT22;14477;51.038;4.588;2023-08-08T14:25:13;25.00;99.90
26909;DHT22;14477;51.038;4.588;2023-08-08T14:27:39;24.90;99.90
26909;DHT22;14477;51.038;4.588;2023-08-08T14:30:05;24.80;99.90
26909;DHT22;14477;51.038;4.588;2023-08-08T14:32:31;24.70;99.90
26909;DHT22;14477;51.038;4.588;2023-08-08T14:34:57;24.70;99.90
26909;DHT22;14477;51.038;4.588;2023-08-08T14:37:23;24.60;99.90
26909;DHT22;14477;51.038;4.588;2023-08-08T14:39:49;24.50;99.90
26909;DHT22;14477;51.038;4.588;2023-08-08T14:42:14;24.50;99.90
26909;DHT22;14477;51.038;4.588;2023-08-08T14:44:40;24.40;99.90
26909;DHT22;14477;51.038;4.588;2023-08-08T14:47:06;24.30;99.60
26909;DHT22;14477;51.038;4.588;2023-08-08T14:49:32;24.20;99.60
26909;DHT22;14477;51.038;4.588;2023-08-08T14:51:58;24.10;99.40
26909;DHT22;14477;51.038;4.588;2023-08-08T14:54:24;24.00;99.50
26909;DHT22;14477;51.038;4.588;2023-08-08T14:56:49;23.90;99.70
26909;DHT22;14477;51.038;4.588;2023-08-08T14:59:16;23.80;99.90
26909;DHT22;14477;51.038;4.588;2023-08-08T15:01:42;23.80;99.70
26909;DHT22;14477;51.038;4.588;2023-08-08T15:04:08;23.70;99.70
26909;DHT22;14477;51.038;4.588;2023-08-08T15:06:36;23.70;99.90
26909;DHT22;14477;51.038;4.588;2023-08-08T15:09:01;23.60;99.90
26909;DHT22;14477;51.038;4.588;2023-08-08T15:11:28;23.60;99.90
26909;DHT22;14477;51.038;4.588;2023-08-08T15:13:53;23.60;99.50
26909;DHT22;14477;51.038;4.588;2023-08-08T15:16:19;23.50;99.80
26909;DHT22;14477;51.038;4.588;2023-08-08T15:18:45;23.50;99.90
26909;DHT22;14477;51.038;4.588;2023-08-08T15:21:11;23.40;99.90
26909;DHT22;14477;51.038;4.588;2023-08-08T15:23:36;23.40;99.90
26909;DHT22;14477;51.038;4.588;2023-08-08T15:26:02;23.40;99.40
26909;DHT22;14477;51.038;4.588;2023-08-08T15:28:28;23.30;99.50
26909;DHT22;14477;51.038;4.588;2023-08-08T15:30:54;23.20;99.50
26909;DHT22;14477;51.038;4.588;2023-08-08T15:33:19;23.10;99.50
26909;DHT22;14477;51.038;4.588;2023-08-08T15:35:45;23.10;99.70
26909;DHT22;14477;51.038;4.588;2023-08-08T15:38:11;23.00;99.50
26909;DHT22;14477;51.038;4.588;2023-08-08T15:40:37;22.90;99.70
26909;DHT22;14477;51.038;4.588;2023-08-08T15:43:03;22.90;99.60
26909;DHT22;14477;51.038;4.588;2023-08-08T15:45:29;22.90;99.70